createdAt,value
2024-01-16T00:03:13.168Z,85.33
2024-01-16T00:08:16.396Z,85.17
2024-01-16T00:13:20.983Z,85.76
2024-01-16T00:18:24.464Z,85.42
2024-01-16T00:23:27.679Z,85.16
2024-01-16T00:28:34.112Z,84.69
2024-01-16T00:33:37.704Z,84.91
2024-01-16T00:38:40.970Z,84.69
2024-01-16T00:43:45.896Z,84.57
2024-01-16T00:48:49.236Z,84.93
2024-01-16T00:53:52.613Z,85.07
2024-01-16T00:58:57.129Z,85.87
2024-01-16T01:04:00.339Z,86.42
2024-01-16T01:09:04.230Z,85.59
2024-01-16T01:14:08.850Z,85.68
2024-01-16T01:19:12.196Z,83.66
2024-01-16T01:24:15.439Z,84.95
2024-01-16T01:29:19.898Z,84.21
2024-01-16T01:34:23.120Z,84.99
2024-01-16T01:39:26.338Z,85.20
2024-01-16T01:44:30.846Z,85.19
2024-01-16T01:49:34.548Z,85.80
2024-01-16T01:54:39.395Z,85.46
2024-01-16T01:59:44.290Z,85.54
2024-01-16T02:04:48.355Z,85.87
2024-01-16T02:09:52.324Z,86.78
2024-01-16T02:14:56.796Z,87.07
2024-01-16T02:19:59.904Z,87.61
2024-01-16T02:25:04.761Z,86.67
2024-01-16T02:30:09.462Z,85.79
2024-01-16T02:35:12.667Z,85.76
2024-01-16T02:40:17.361Z,86.13
2024-01-16T02:45:20.516Z,84.48
2024-01-16T02:50:24.194Z,84.75
2024-01-16T02:55:28.695Z,85.68
2024-01-16T03:00:31.875Z,85.14
2024-01-16T03:05:35.112Z,85.13
2024-01-16T03:10:39.701Z,85.66
2024-01-16T03:15:43.139Z,85.06
2024-01-16T03:20:46.304Z,85.69
2024-01-16T03:25:50.807Z,86.26
2024-01-16T03:30:55.455Z,85.95
2024-01-16T03:35:58.763Z,87.20
2024-01-16T03:41:04.712Z,86.94
2024-01-16T03:46:08.813Z,87.94
2024-01-16T03:51:12.099Z,87.45
2024-01-16T03:56:17.439Z,87.07
2024-01-16T04:01:20.651Z,87.59
2024-01-16T04:06:23.864Z,86.33
2024-01-16T04:11:28.392Z,87.79
2024-01-16T04:16:31.528Z,86.63
2024-01-16T04:21:34.641Z,86.66
2024-01-16T04:26:39.918Z,88.11
2024-01-16T04:31:43.796Z,88.21
2024-01-16T04:36:46.915Z,87.29
2024-01-16T04:41:51.467Z,88.53
2024-01-16T04:46:54.867Z,88.63
2024-01-16T04:51:58.013Z,88.25
2024-01-16T04:57:02.482Z,89.19
2024-01-16T05:02:05.932Z,89.89
2024-01-16T05:07:09.090Z,90.17
2024-01-16T05:12:13.701Z,89.89
2024-01-16T05:17:16.838Z,90.19
2024-01-16T05:22:19.953Z,91.35
2024-01-16T05:27:24.428Z,91.00
2024-01-16T05:32:27.612Z,90.04
2024-01-16T05:37:30.902Z,91.24
2024-01-16T05:42:35.374Z,91.88
2024-01-16T05:47:38.592Z,91.27
2024-01-16T05:52:44.925Z,91.99
2024-01-16T05:57:50.660Z,91.53
2024-01-16T06:02:53.878Z,91.92
2024-01-16T06:07:57.938Z,91.63
2024-01-16T06:13:02.423Z,92.26
2024-01-16T06:18:06.321Z,92.42
2024-01-16T06:23:09.588Z,92.05
2024-01-16T06:28:14.233Z,92.54
2024-01-16T06:33:17.588Z,93.32
2024-01-16T06:38:20.853Z,92.33
2024-01-16T06:43:25.816Z,93.79
2024-01-16T06:48:29.118Z,93.32
2024-01-16T06:53:32.413Z,94.38
2024-01-16T06:58:37.377Z,94.82
2024-01-16T07:03:40.524Z,93.72
2024-01-16T07:08:43.766Z,93.59
2024-01-16T07:13:48.304Z,93.29
2024-01-16T07:18:51.543Z,94.41
2024-01-16T07:23:54.733Z,93.51
2024-01-16T07:28:59.571Z,93.72
2024-01-16T07:34:02.749Z,93.80
2024-01-16T07:39:06.020Z,93.17
2024-01-16T07:44:10.548Z,93.08
2024-01-16T07:49:13.715Z,94.18
2024-01-16T07:54:16.853Z,93.01
2024-01-16T07:59:21.389Z,93.06
2024-01-16T08:04:24.537Z,92.48
2024-01-16T08:09:27.741Z,92.26
2024-01-16T08:14:32.394Z,93.84
2024-01-16T08:19:35.685Z,93.66
2024-01-16T08:24:39.824Z,91.74
2024-01-16T08:29:44.342Z,92.35
2024-01-16T08:34:48.462Z,91.79
2024-01-16T08:39:51.807Z,92.00
2024-01-16T08:44:56.320Z,91.17
2024-01-16T08:49:59.619Z,90.23
2024-01-16T08:55:02.781Z,89.28
2024-01-16T09:00:10.025Z,88.66
2024-01-16T09:05:14.568Z,86.80
2024-01-16T09:10:18.257Z,82.30
2024-01-16T09:15:22.759Z,82.86
2024-01-16T09:20:25.981Z,83.99
2024-01-16T09:25:32.216Z,84.44
2024-01-16T09:30:36.652Z,81.94
2024-01-16T09:35:40.124Z,78.47
2024-01-16T09:40:43.262Z,77.83
2024-01-16T09:45:49.686Z,77.76
2024-01-16T09:50:52.938Z,75.72
2024-01-16T09:56:02.349Z,76.08
2024-01-16T10:01:08.159Z,76.28
2024-01-16T10:06:12.717Z,76.41
2024-01-16T10:11:15.922Z,75.56
2024-01-16T10:16:23.577Z,74.75
2024-01-16T10:21:32.772Z,75.38
2024-01-16T10:26:35.891Z,72.96
2024-01-16T10:31:41.620Z,73.02
2024-01-16T10:36:45.023Z,73.36
2024-01-16T10:41:57.442Z,73.86
2024-01-16T10:47:17.372Z,72.35
2024-01-16T10:52:21.765Z,72.46
2024-01-16T10:57:26.983Z,70.57
2024-01-16T11:02:39.980Z,70.69
2024-01-16T11:07:44.943Z,68.86
2024-01-16T11:12:49.076Z,69.83
2024-01-16T11:17:54.034Z,66.64
2024-01-16T11:23:00.718Z,68.45
2024-01-16T11:28:11.981Z,66.39
2024-01-16T11:33:47.472Z,65.93
2024-01-16T11:38:58.810Z,64.15
2024-01-16T11:44:01.994Z,66.53
2024-01-16T11:49:07.073Z,64.45
2024-01-16T11:54:10.578Z,65.47
2024-01-16T12:00:13.884Z,63.94
2024-01-16T12:05:18.669Z,62.90
2024-01-16T12:10:24.444Z,62.82
2024-01-16T12:15:28.622Z,63.42
2024-01-16T12:20:35.266Z,63.37
2024-01-16T12:26:01.203Z,65.39
2024-01-16T12:31:04.199Z,62.97
2024-01-16T12:36:11.895Z,62.29
2024-01-16T12:41:15.659Z,61.48
2024-01-16T12:46:20.823Z,61.28
2024-01-16T12:51:25.309Z,61.44
2024-01-16T12:56:37.760Z,60.29
2024-01-16T13:01:44.294Z,60.95
2024-01-16T13:06:50.001Z,61.34
2024-01-16T13:11:56.693Z,62.55
2024-01-16T13:17:02.499Z,61.32
2024-01-16T13:22:08.035Z,62.62
2024-01-16T13:27:14.156Z,60.36
2024-01-16T13:32:17.374Z,57.20
2024-01-16T13:37:24.277Z,56.51
2024-01-16T13:42:27.377Z,59.29
2024-01-16T13:47:30.939Z,61.72
2024-01-16T13:52:36.553Z,61.07
2024-01-16T13:57:39.994Z,56.72
2024-01-16T14:02:43.830Z,59.11
2024-01-16T14:07:52.107Z,58.72
2024-01-16T14:12:55.276Z,58.13
2024-01-16T14:17:59.434Z,54.45
2024-01-16T14:23:04.978Z,54.89
2024-01-16T14:28:14.992Z,55.12
2024-01-16T14:33:21.708Z,56.58
2024-01-16T14:38:26.273Z,56.07
2024-01-16T14:43:29.469Z,55.99
2024-01-16T14:48:32.701Z,54.36
2024-01-16T14:53:37.226Z,54.80
2024-01-16T14:58:40.578Z,57.77
2024-01-16T15:03:43.777Z,57.24
2024-01-16T15:08:49.452Z,59.09
2024-01-16T15:13:52.723Z,58.78
2024-01-16T15:18:56.640Z,62.74
2024-01-16T15:24:01.288Z,63.90
2024-01-16T15:29:04.544Z,66.20
2024-01-16T15:34:08.006Z,66.95
2024-01-16T15:39:12.542Z,68.56
2024-01-16T15:44:15.759Z,69.10
2024-01-16T15:49:18.958Z,70.97
2024-01-16T15:54:24.621Z,70.80
2024-01-16T15:59:27.912Z,71.36
2024-01-16T16:04:31.029Z,72.17
2024-01-16T16:09:36.922Z,73.23
2024-01-16T16:14:41.435Z,75.67
2024-01-16T16:19:46.758Z,74.46
2024-01-16T16:24:51.263Z,73.76
2024-01-16T16:29:58.001Z,76.72
2024-01-16T16:35:01.282Z,76.82
2024-01-16T16:40:07.131Z,75.50
2024-01-16T16:45:12.700Z,75.66
2024-01-16T16:50:15.950Z,76.46
2024-01-16T16:55:20.635Z,77.76
2024-01-16T17:00:23.735Z,78.03
2024-01-16T17:05:27.083Z,78.86
2024-01-16T17:10:31.985Z,77.60
2024-01-16T17:15:35.076Z,78.65
2024-01-16T17:20:38.290Z,79.66
2024-01-16T17:25:43.145Z,79.31
2024-01-16T17:30:47.339Z,81.29
2024-01-16T17:35:50.942Z,81.35
2024-01-16T17:40:55.534Z,82.14
2024-01-16T17:45:59.126Z,82.62
2024-01-16T17:51:02.429Z,82.34
2024-01-16T17:56:10.229Z,83.17
2024-01-16T18:01:13.532Z,85.24
2024-01-16T18:06:18.542Z,86.04
2024-01-16T18:11:24.392Z,85.01
2024-01-16T18:16:27.698Z,86.53
2024-01-16T18:21:30.867Z,86.15
2024-01-16T18:26:37.383Z,87.04
2024-01-16T18:31:40.658Z,86.20
2024-01-16T18:36:49.759Z,86.36
2024-01-16T18:41:54.685Z,88.19
2024-01-16T18:46:57.897Z,88.93
2024-01-16T18:52:04.454Z,87.39
2024-01-16T18:57:10.447Z,87.24
2024-01-16T19:02:18.103Z,88.13
2024-01-16T19:07:24.773Z,89.01
2024-01-16T19:12:29.336Z,88.80
2024-01-16T19:17:32.684Z,89.43
2024-01-16T19:22:35.883Z,89.09
2024-01-16T19:27:41.963Z,89.76
2024-01-16T19:32:46.414Z,90.02
2024-01-16T19:37:49.582Z,90.24
2024-01-16T19:42:55.619Z,90.20
2024-01-16T19:47:58.978Z,89.30
2024-01-16T19:53:04.014Z,90.04
2024-01-16T19:58:10.157Z,90.70
2024-01-16T20:03:14.170Z,89.69
2024-01-16T20:08:17.454Z,90.05
2024-01-16T20:13:21.900Z,89.56
2024-01-16T20:18:25.181Z,89.64
2024-01-16T20:23:29.492Z,89.84
2024-01-16T20:28:34.300Z,89.90
2024-01-16T20:33:37.631Z,90.63
2024-01-16T20:38:41.554Z,90.70
2024-01-16T20:43:46.096Z,90.18
2024-01-16T20:48:49.801Z,91.30
2024-01-16T20:53:53.128Z,91.24
2024-01-16T20:58:57.614Z,91.80
2024-01-16T21:04:00.747Z,91.29
2024-01-16T21:09:04.707Z,91.63
2024-01-16T21:14:09.205Z,91.51
2024-01-16T21:19:17.462Z,91.22
2024-01-16T21:24:21.243Z,92.04
2024-01-16T21:29:26.330Z,91.78
2024-01-16T21:34:29.523Z,91.85
2024-01-16T21:39:33.826Z,92.50
2024-01-16T21:44:38.308Z,91.39
2024-01-16T21:49:42.257Z,92.12
2024-01-16T21:54:45.425Z,91.67
2024-01-16T21:59:49.946Z,91.50
2024-01-16T22:04:54.389Z,92.13
2024-01-16T22:09:57.593Z,92.14
2024-01-16T22:15:02.443Z,92.15
2024-01-16T22:20:07.537Z,91.67
2024-01-16T22:25:11.493Z,92.17
2024-01-16T22:30:17.251Z,92.32
2024-01-16T22:35:20.593Z,92.28
2024-01-16T22:40:24.305Z,91.73
2024-01-16T22:45:28.818Z,91.65
2024-01-16T22:50:31.997Z,92.28
2024-01-16T22:55:35.476Z,92.15
2024-01-16T23:00:40.936Z,92.35
2024-01-16T23:05:45.300Z,92.90
2024-01-16T23:10:48.691Z,92.36
2024-01-16T23:15:53.971Z,92.17
2024-01-16T23:20:57.190Z,92.76
2024-01-16T23:26:00.695Z,91.04
2024-01-16T23:31:06.408Z,92.12
2024-01-16T23:36:10.565Z,91.72
2024-01-16T23:41:13.717Z,91.16
2024-01-16T23:46:18.255Z,91.54
2024-01-16T23:51:21.398Z,91.00
2024-01-16T23:56:24.605Z,91.14
